createdAt,value
2018-11-03T00:00:18.031Z,73.60
2018-11-03T00:02:50.762Z,74.90
2018-11-03T00:05:22.713Z,74.70
2018-11-03T00:07:52.869Z,76.20
2018-11-03T00:10:21.666Z,74.80
2018-11-03T00:12:53.651Z,76.20
2018-11-03T00:15:23.075Z,75.20
2018-11-03T00:17:56.142Z,76.80
2018-11-03T00:20:28.816Z,77.70
2018-11-03T00:22:58.493Z,77.20
2018-11-03T00:25:27.662Z,76.80
2018-11-03T00:27:56.994Z,80.60
2018-11-03T00:30:33.088Z,78.40
2018-11-03T00:33:03.500Z,77.70
2018-11-03T00:35:34.461Z,80.50
2018-11-03T00:38:03.593Z,78.90
2018-11-03T00:40:34.681Z,82.50
2018-11-03T00:43:09.411Z,81.00
2018-11-03T00:45:38.369Z,83.20
2018-11-03T00:48:07.481Z,84.80
2018-11-03T00:50:56.844Z,84.00
2018-11-03T00:53:27.847Z,82.40
2018-11-03T00:55:59.727Z,81.40
2018-11-03T00:58:29.659Z,84.10
2018-11-03T01:00:58.564Z,84.80
2018-11-03T01:03:27.512Z,84.40
2018-11-03T01:05:57.090Z,82.90
2018-11-03T01:08:31.744Z,84.30
2018-11-03T01:11:00.516Z,82.20
2018-11-03T01:13:29.882Z,84.60
2018-11-03T01:15:59.071Z,85.50
2018-11-03T01:18:29.203Z,85.90
2018-11-03T01:21:00.508Z,85.20
2018-11-03T01:23:29.824Z,85.20
2018-11-03T01:25:59.719Z,85.10
2018-11-03T01:28:29.434Z,85.70
2018-11-03T01:31:02.212Z,86.50
2018-11-03T01:33:31.322Z,85.40
2018-11-03T01:36:12.440Z,86.10
2018-11-03T01:38:43.390Z,85.90
2018-11-03T01:41:13.569Z,86.50
2018-11-03T01:43:43.610Z,85.50
2018-11-03T01:46:17.050Z,86.30
2018-11-03T01:48:46.810Z,86.50
2018-11-03T01:51:24.101Z,86.30
2018-11-03T01:53:52.960Z,85.50
2018-11-03T01:56:24.200Z,83.80
2018-11-03T01:58:53.156Z,85.00
2018-11-03T02:01:22.165Z,85.00
2018-11-03T02:03:51.086Z,86.20
2018-11-03T02:06:25.634Z,86.00
2018-11-03T02:09:00.564Z,86.10
2018-11-03T02:11:30.593Z,87.10
2018-11-03T02:13:59.668Z,87.10
2018-11-03T02:16:29.640Z,87.10
2018-11-03T02:19:02.610Z,87.40
2018-11-03T02:21:34.398Z,87.80
2018-11-03T02:24:06.954Z,86.00
2018-11-03T02:26:35.895Z,85.10
2018-11-03T02:29:05.256Z,83.30
2018-11-03T02:31:38.725Z,83.10
2018-11-03T02:34:07.481Z,82.80
2018-11-03T02:36:36.616Z,82.90
2018-11-03T02:39:07.882Z,82.50
2018-11-03T02:41:36.970Z,82.50
2018-11-03T02:44:06.909Z,84.20
2018-11-03T02:46:36.781Z,84.60
2018-11-03T02:49:10.229Z,83.90
2018-11-03T02:51:52.562Z,84.00
2018-11-03T02:54:21.393Z,85.60
2018-11-03T02:56:51.355Z,86.20
2018-11-03T02:59:21.398Z,84.00
2018-11-03T03:01:53.937Z,83.80
2018-11-03T03:04:24.802Z,86.00
2018-11-03T03:06:53.711Z,83.50
2018-11-03T03:09:23.689Z,82.80
2018-11-03T03:11:53.923Z,82.80
2018-11-03T03:14:24.161Z,82.60
2018-11-03T03:16:53.245Z,81.80
2018-11-03T03:19:21.981Z,82.60
2018-11-03T03:21:51.955Z,82.60
2018-11-03T03:24:24.975Z,82.80
2018-11-03T03:26:54.673Z,82.00
2018-11-03T03:29:24.919Z,85.80
2018-11-03T03:31:54.114Z,82.70
2018-11-03T03:34:23.929Z,84.50
2018-11-03T03:36:59.220Z,83.80
2018-11-03T03:39:28.496Z,82.80
2018-11-03T03:41:58.400Z,83.00
2018-11-03T03:44:27.294Z,85.00
2018-11-03T03:46:56.676Z,83.80
2018-11-03T03:49:32.736Z,83.30
2018-11-03T03:52:02.830Z,82.60
2018-11-03T03:54:33.073Z,82.40
2018-11-03T03:57:03.307Z,82.80
2018-11-03T03:59:33.320Z,83.00
2018-11-03T04:02:10.344Z,82.80
2018-11-03T04:04:40.285Z,82.80
2018-11-03T04:07:09.290Z,82.60
2018-11-03T04:09:42.125Z,82.60
2018-11-03T04:12:11.072Z,81.40
2018-11-03T04:14:40.292Z,82.80
2018-11-03T04:17:09.135Z,82.90
2018-11-03T04:19:44.845Z,84.00
2018-11-03T04:22:15.885Z,85.60
2018-11-03T04:25:04.722Z,85.70
2018-11-03T04:27:33.418Z,83.90
2018-11-03T04:30:06.566Z,85.90
2018-11-03T04:32:35.447Z,84.40
2018-11-03T04:35:05.420Z,84.00
2018-11-03T04:37:34.790Z,83.40
2018-11-03T04:40:03.930Z,83.70
2018-11-03T04:42:32.737Z,83.00
2018-11-03T04:45:01.574Z,84.20
2018-11-03T04:47:34.528Z,86.70
2018-11-03T04:50:03.993Z,88.50
2018-11-03T04:52:32.793Z,87.80
2018-11-03T04:55:03.821Z,87.50
2018-11-03T04:57:34.696Z,89.20
2018-11-03T05:00:03.950Z,88.70
2018-11-03T05:02:36.596Z,89.10
2018-11-03T05:05:05.980Z,88.50
2018-11-03T05:07:35.200Z,89.30
2018-11-03T05:10:04.014Z,88.70
2018-11-03T05:12:32.788Z,88.40
2018-11-03T05:15:02.857Z,88.30
2018-11-03T05:17:33.788Z,89.50
2018-11-03T05:20:02.679Z,88.90
2018-11-03T05:22:32.622Z,87.80
2018-11-03T05:25:02.390Z,87.40
2018-11-03T05:27:39.533Z,88.70
2018-11-03T05:30:08.749Z,87.10
2018-11-03T05:32:40.520Z,88.20
2018-11-03T05:35:09.215Z,86.60
2018-11-03T05:37:38.404Z,88.20
2018-11-03T05:40:07.689Z,88.80
2018-11-03T05:42:36.856Z,88.40
2018-11-03T05:45:07.798Z,89.70
2018-11-03T05:47:42.483Z,88.90
2018-11-03T05:50:12.305Z,89.30
2018-11-03T05:52:51.891Z,89.20
2018-11-03T05:55:21.684Z,89.50
2018-11-03T05:57:50.607Z,89.20
2018-11-03T06:00:19.799Z,88.40
2018-11-03T06:02:49.710Z,89.50
2018-11-03T06:05:18.725Z,87.60
2018-11-03T06:07:47.823Z,88.80
2018-11-03T06:10:18.662Z,88.20
2018-11-03T06:12:52.853Z,87.30
2018-11-03T06:15:21.728Z,86.60
2018-11-03T06:17:52.549Z,86.60
2018-11-03T06:20:22.589Z,87.60
2018-11-03T06:22:51.380Z,89.00
2018-11-03T06:25:27.273Z,87.20
2018-11-03T06:28:18.288Z,87.70
2018-11-03T06:30:48.713Z,88.20
2018-11-03T06:33:18.705Z,88.70
2018-11-03T06:35:47.628Z,88.10
2018-11-03T06:38:22.892Z,89.00
2018-11-03T06:40:55.474Z,87.60
2018-11-03T06:43:24.822Z,88.00
2018-11-03T06:46:56.868Z,89.20
2018-11-03T06:49:26.012Z,87.40
2018-11-03T06:51:58.465Z,87.90
2018-11-03T06:54:27.387Z,86.90
2018-11-03T06:56:56.327Z,87.00
2018-11-03T06:59:27.400Z,86.00
2018-11-03T07:01:58.555Z,86.00
2018-11-03T07:04:28.056Z,86.80
2018-11-03T07:06:56.815Z,86.80
2018-11-03T07:09:27.296Z,86.40
2018-11-03T07:11:56.636Z,88.60
2018-11-03T07:14:25.628Z,89.50
2018-11-03T07:16:57.992Z,89.70
2018-11-03T07:19:32.901Z,89.90
2018-11-03T07:22:01.597Z,89.60
2018-11-03T07:24:30.211Z,90.00
2018-11-03T07:26:58.864Z,89.60
2018-11-03T07:29:27.801Z,89.60
2018-11-03T07:31:58.718Z,89.60
2018-11-03T07:34:27.591Z,89.00
2018-11-03T07:36:56.556Z,87.60
2018-11-03T07:39:27.469Z,88.10
2018-11-03T07:41:56.324Z,88.60
2018-11-03T07:44:25.715Z,88.20
2018-11-03T07:46:55.535Z,87.80
2018-11-03T07:49:24.896Z,87.80
2018-11-03T07:51:53.678Z,88.60
2018-11-03T07:54:22.461Z,88.50
2018-11-03T07:56:51.487Z,88.40
2018-11-03T07:59:20.957Z,87.70
2018-11-03T08:01:50.892Z,87.30
2018-11-03T08:04:19.646Z,87.60
2018-11-03T08:06:48.236Z,87.30
2018-11-03T08:09:16.976Z,86.80
2018-11-03T08:11:45.881Z,86.90
2018-11-03T08:14:14.505Z,86.70
2018-11-03T08:16:43.275Z,86.80
2018-11-03T08:19:12.521Z,86.50
2018-11-03T08:21:41.499Z,86.40
2018-11-03T08:24:10.347Z,86.10
2018-11-03T08:26:39.533Z,85.80
2018-11-03T08:29:08.110Z,85.50
2018-11-03T08:31:36.963Z,85.10
2018-11-03T08:34:06.038Z,84.50
2018-11-03T08:36:35.015Z,84.10
2018-11-03T08:39:04.975Z,83.80
2018-11-03T08:41:35.847Z,83.70
2018-11-03T08:44:04.612Z,83.30
2018-11-03T08:46:33.681Z,82.90
2018-11-03T08:49:03.179Z,81.60
2018-11-03T08:51:32.119Z,80.00
2018-11-03T08:54:01.512Z,79.30
2018-11-03T08:56:30.503Z,79.50
2018-11-03T08:58:59.695Z,79.70
2018-11-03T09:01:28.970Z,79.30
2018-11-03T09:03:58.660Z,79.50
2018-11-03T09:06:27.442Z,80.30
2018-11-03T09:08:56.312Z,79.50
2018-11-03T09:11:25.255Z,79.90
2018-11-03T09:13:54.281Z,79.70
2018-11-03T09:16:23.389Z,79.00
2018-11-03T09:18:52.236Z,78.60
2018-11-03T09:21:21.173Z,78.90
2018-11-03T09:23:49.859Z,78.80
2018-11-03T09:26:19.055Z,78.10
2018-11-03T09:28:48.850Z,78.00
2018-11-03T09:31:17.716Z,76.80
2018-11-03T09:33:47.064Z,77.40
2018-11-03T09:36:16.094Z,76.60
2018-11-03T09:38:45.224Z,75.80
2018-11-03T09:41:14.410Z,76.30
2018-11-03T09:43:43.588Z,76.00
2018-11-03T09:46:13.634Z,74.70
2018-11-03T09:48:42.777Z,74.50
2018-11-03T09:51:11.932Z,75.10
2018-11-03T09:53:41.683Z,73.60
2018-11-03T09:56:10.745Z,72.50
2018-11-03T09:58:42.157Z,71.40
2018-11-03T10:01:24.757Z,68.80
2018-11-03T10:03:54.298Z,71.20
2018-11-03T10:06:23.511Z,71.70
2018-11-03T10:11:19.711Z,67.60
2018-11-03T10:13:48.393Z,62.20
2018-11-03T10:16:17.173Z,66.70
2018-11-03T10:18:45.762Z,68.10
2018-11-03T10:21:15.637Z,61.20
2018-11-03T10:23:44.382Z,61.40
2018-11-03T10:26:13.423Z,62.80
2018-11-03T10:28:42.151Z,65.70
2018-11-03T10:31:10.966Z,62.50
2018-11-03T10:36:08.246Z,57.90
2018-11-03T10:38:36.857Z,58.10
2018-11-03T10:41:05.852Z,54.90
2018-11-03T10:43:35.085Z,57.10
2018-11-03T10:46:04.032Z,55.30
2018-11-03T10:48:32.827Z,56.50
2018-11-03T10:51:01.573Z,56.90
2018-11-03T10:53:30.134Z,56.80
2018-11-03T10:55:59.115Z,56.50
2018-11-03T10:58:28.078Z,56.10
2018-11-03T11:02:02.311Z,55.20
2018-11-03T11:04:36.434Z,55.80
2018-11-03T11:07:10.859Z,57.00
2018-11-03T11:09:44.923Z,57.00
2018-11-03T11:12:45.940Z,56.70
2018-11-03T11:15:14.709Z,57.90
2018-11-03T11:17:43.350Z,55.70
2018-11-03T11:20:12.140Z,55.90
2018-11-03T11:22:41.041Z,57.00
2018-11-03T11:25:11.230Z,55.50
2018-11-03T11:27:39.730Z,56.40
2018-11-03T11:30:11.143Z,53.70
2018-11-03T11:32:40.016Z,55.50
2018-11-03T11:35:09.308Z,52.90
2018-11-03T11:37:38.991Z,52.00
2018-11-03T11:40:08.051Z,48.50
2018-11-03T11:45:05.203Z,48.70
2018-11-03T11:47:34.122Z,42.70
2018-11-03T11:50:03.214Z,40.00
2018-11-03T11:52:31.984Z,39.00
2018-11-03T11:55:01.368Z,43.60
2018-11-03T11:57:30.255Z,47.30
2018-11-03T11:59:59.351Z,45.50
2018-11-03T12:02:28.148Z,45.60
2018-11-03T12:04:57.031Z,45.70
2018-11-03T12:07:26.728Z,42.50
2018-11-03T12:09:55.705Z,43.40
2018-11-03T12:12:24.644Z,44.30
2018-11-03T12:15:56.068Z,44.60
2018-11-03T12:18:25.526Z,43.70
2018-11-03T12:20:54.432Z,44.50
2018-11-03T12:23:23.193Z,44.60
2018-11-03T12:25:52.042Z,46.90
2018-11-03T12:28:20.775Z,45.20
2018-11-03T12:30:49.647Z,45.00
2018-11-03T12:33:18.343Z,44.50
2018-11-03T12:35:47.185Z,45.50
2018-11-03T12:38:15.958Z,45.50
2018-11-03T12:40:44.826Z,47.70
2018-11-03T12:43:14.141Z,47.20
2018-11-03T12:45:43.018Z,47.30
2018-11-03T12:48:11.589Z,47.40
2018-11-03T12:50:40.355Z,48.70
2018-11-03T12:53:09.172Z,48.60
2018-11-03T12:55:37.916Z,47.60
2018-11-03T12:58:06.571Z,46.10
2018-11-03T13:00:35.361Z,46.90
2018-11-03T13:03:04.031Z,45.90
2018-11-03T13:05:32.821Z,47.30
2018-11-03T13:08:01.505Z,47.50
2018-11-03T13:10:30.364Z,48.30
2018-11-03T13:12:59.283Z,48.40
2018-11-03T13:15:28.025Z,48.20
2018-11-03T13:17:56.959Z,48.80
2018-11-03T13:20:26.115Z,48.80
2018-11-03T13:22:55.514Z,49.40
2018-11-03T13:25:25.360Z,49.20
2018-11-03T13:27:55.244Z,49.30
2018-11-03T13:30:24.457Z,48.80
2018-11-03T13:32:53.544Z,49.10
2018-11-03T13:35:23.095Z,49.30
2018-11-03T13:37:52.498Z,50.00
2018-11-03T13:40:23.062Z,49.30
2018-11-03T13:42:52.236Z,48.20
2018-11-03T13:45:21.296Z,48.30
2018-11-03T13:47:50.348Z,48.60
2018-11-03T13:50:19.453Z,47.80
2018-11-03T13:52:49.304Z,47.40
2018-11-03T13:55:18.493Z,47.00
2018-11-03T13:57:47.439Z,46.90
2018-11-03T14:00:17.709Z,47.10
2018-11-03T14:02:47.210Z,47.60
2018-11-03T14:05:15.990Z,48.60
2018-11-03T14:07:44.810Z,49.30
2018-11-03T14:10:14.748Z,50.20
2018-11-03T14:18:46.209Z,52.60
2018-11-03T14:27:05.839Z,54.70
2018-11-03T14:29:37.860Z,55.70
2018-11-03T14:32:07.678Z,55.90
2018-11-03T14:34:36.617Z,56.20
2018-11-03T14:37:05.900Z,56.90
2018-11-03T14:39:34.634Z,57.70
2018-11-03T14:42:05.703Z,58.00
2018-11-03T14:44:34.775Z,58.80
2018-11-03T14:47:03.534Z,58.40
2018-11-03T14:49:35.708Z,59.60
2018-11-03T14:52:04.778Z,59.50
2018-11-03T14:54:33.372Z,60.00
2018-11-03T14:57:02.363Z,60.00
2018-11-03T14:59:31.339Z,60.00
2018-11-03T15:02:00.260Z,60.70
2018-11-03T15:04:30.031Z,60.30
2018-11-03T15:07:00.939Z,60.10
2018-11-03T15:09:29.779Z,60.20
2018-11-03T15:12:04.951Z,60.40
2018-11-03T15:14:33.832Z,61.00
2018-11-03T16:23:35.051Z,67.20
2018-11-03T16:26:03.830Z,68.90
2018-11-03T16:28:37.673Z,68.50
2018-11-03T16:31:22.362Z,69.70
2018-11-03T16:33:52.363Z,69.90
2018-11-03T16:36:27.150Z,69.40
2018-11-03T16:41:48.321Z,70.50
2018-11-03T17:36:05.742Z,72.70
2018-11-03T17:38:34.514Z,72.60
2018-11-03T17:46:44.480Z,71.90
2018-11-03T17:49:13.021Z,73.00
2018-11-03T17:57:23.652Z,72.40
2018-11-03T17:59:52.541Z,73.20
2018-11-03T18:05:13.618Z,73.80
2018-11-03T18:07:42.277Z,74.00
2018-11-03T18:10:12.090Z,74.00
2018-11-03T18:12:41.514Z,74.00
2018-11-03T18:15:11.815Z,74.30
2018-11-03T18:17:41.149Z,74.10
2018-11-03T18:20:22.304Z,73.60
2018-11-03T18:22:51.353Z,74.00
2018-11-03T18:25:20.148Z,74.30
2018-11-03T18:27:49.123Z,73.60
2018-11-03T18:30:21.606Z,73.60
2018-11-03T18:32:50.916Z,74.00
2018-11-03T18:35:19.678Z,74.10
2018-11-03T18:37:48.306Z,74.80
2018-11-03T18:40:16.968Z,73.40
2018-11-03T18:42:45.786Z,74.40
2018-11-03T18:45:14.529Z,75.10
2018-11-03T18:47:43.451Z,75.20
2018-11-03T18:50:13.799Z,75.40
2018-11-03T18:52:46.934Z,74.90
2018-11-03T19:09:33.818Z,75.80
2018-11-03T19:16:37.895Z,73.50
2018-11-03T19:19:06.650Z,74.80
2018-11-03T19:21:35.353Z,74.50
2018-11-03T19:24:04.247Z,74.20
2018-11-03T19:26:33.066Z,74.50
2018-11-03T19:29:02.015Z,74.20
2018-11-03T19:31:30.559Z,75.40
2018-11-03T19:33:59.389Z,74.00
2018-11-03T19:36:28.232Z,76.30
2018-11-03T19:38:57.268Z,75.60
2018-11-03T19:41:27.514Z,76.70
2018-11-03T19:43:57.469Z,75.30
2018-11-03T19:46:26.967Z,75.90
2018-11-03T19:48:55.793Z,74.60
2018-11-03T19:51:24.729Z,75.10
2018-11-03T19:53:53.495Z,76.90
2018-11-03T19:56:22.386Z,74.80
2018-11-03T19:58:51.573Z,75.10
2018-11-03T20:01:20.201Z,76.50
2018-11-03T20:03:48.865Z,75.70
2018-11-03T20:06:17.733Z,76.50
2018-11-03T20:08:46.499Z,77.90
2018-11-03T20:11:15.071Z,76.70
2018-11-03T20:13:43.770Z,76.30
2018-11-03T20:16:13.748Z,78.10
2018-11-03T20:18:43.134Z,76.50
2018-11-03T20:21:11.905Z,75.80
2018-11-03T20:23:40.602Z,75.50
2018-11-03T20:26:10.055Z,75.90
2018-11-03T20:40:05.404Z,76.80
2018-11-03T20:42:34.101Z,77.70
2018-11-03T20:45:03.333Z,76.60
2018-11-03T20:47:32.127Z,77.70
2018-11-03T20:50:00.876Z,77.80
2018-11-03T20:52:29.703Z,77.00
2018-11-03T20:54:58.370Z,76.60
2018-11-03T20:57:27.144Z,78.10
2018-11-03T20:59:55.945Z,78.20
2018-11-03T21:02:25.098Z,78.10
2018-11-03T21:04:53.909Z,78.00
2018-11-03T21:07:22.501Z,78.50
2018-11-03T21:09:51.285Z,77.80
2018-11-03T21:12:21.141Z,77.40
2018-11-03T21:14:50.256Z,78.40
2018-11-03T21:17:18.854Z,78.00
2018-11-03T21:19:47.579Z,78.80
2018-11-03T21:22:16.121Z,78.10
2018-11-03T21:24:44.894Z,78.80
2018-11-03T21:27:13.496Z,78.80
2018-11-03T21:29:42.050Z,77.90
2018-11-03T21:32:10.936Z,78.70
2018-11-03T21:34:39.413Z,79.00
2018-11-03T21:37:08.392Z,80.20
2018-11-03T21:39:37.095Z,79.60
2018-11-03T21:42:06.261Z,79.60
2018-11-03T21:44:34.992Z,79.80
2018-11-03T21:47:03.677Z,79.60
2018-11-03T21:49:32.689Z,80.10
2018-11-03T21:52:01.545Z,80.30
2018-11-03T21:54:30.207Z,80.30
2018-11-03T21:56:58.734Z,80.00
2018-11-03T21:59:27.317Z,80.20
2018-11-03T22:01:55.840Z,80.00
2018-11-03T22:04:24.451Z,80.40
2018-11-03T22:06:54.861Z,79.30
2018-11-03T22:09:23.398Z,79.50
2018-11-03T22:11:52.081Z,79.60
2018-11-03T22:14:20.821Z,79.90
2018-11-03T22:16:49.497Z,80.70
2018-11-03T22:19:23.531Z,79.00
2018-11-03T22:21:52.149Z,80.20
2018-11-03T22:24:20.897Z,80.00
2018-11-03T22:26:49.438Z,80.50
2018-11-03T22:29:18.362Z,80.10
2018-11-03T22:31:46.855Z,79.80
2018-11-03T22:34:15.379Z,79.80
2018-11-03T22:36:43.886Z,80.10
2018-11-03T22:39:12.700Z,80.10
2018-11-03T22:41:41.604Z,80.00
2018-11-03T22:44:10.518Z,79.80
2018-11-03T22:46:39.361Z,80.40
2018-11-03T22:49:08.035Z,80.00
2018-11-03T22:51:37.284Z,81.00
2018-11-03T22:54:06.191Z,81.00
2018-11-03T22:56:34.872Z,80.10
2018-11-03T22:59:03.894Z,81.30
2018-11-03T23:01:32.501Z,80.00
2018-11-03T23:04:01.870Z,79.00
2018-11-03T23:06:30.665Z,79.20
2018-11-03T23:08:59.480Z,80.30
2018-11-03T23:11:28.085Z,80.10
2018-11-03T23:13:56.704Z,79.30
2018-11-03T23:16:25.379Z,79.80
2018-11-03T23:18:54.092Z,80.60
2018-11-03T23:21:22.707Z,80.90
2018-11-03T23:23:51.438Z,80.20
2018-11-03T23:26:20.568Z,81.00
2018-11-03T23:28:49.476Z,79.90
2018-11-03T23:31:18.092Z,80.60
2018-11-03T23:33:47.144Z,81.00
2018-11-03T23:36:15.808Z,81.60
2018-11-03T23:38:44.651Z,81.60
2018-11-03T23:41:13.527Z,82.20
2018-11-03T23:43:42.178Z,81.70
2018-11-03T23:46:10.927Z,82.20
2018-11-03T23:48:39.463Z,82.60
2018-11-03T23:51:07.957Z,82.00
2018-11-03T23:53:36.404Z,82.50
2018-11-03T23:56:05.189Z,82.40
2018-11-03T23:58:33.763Z,82.30
